sensor_id;sensor_type;location;lat;lon;timestamp;pressure;altitude;pressure_sealevel;temperature;humidity
41596;BME280;27283;52.504;13.358;2023-05-11T00:03:06;100989.47;;;14.10;95.35
41596;BME280;27283;52.504;13.358;2023-05-11T00:06:06;100991.22;;;14.03;96.46
41596;BME280;27283;52.504;13.358;2023-05-11T00:08:49;100992.97;;;13.96;97.42
41596;BME280;27283;52.504;13.358;2023-05-11T00:11:31;100976.53;;;13.82;98.06
41596;BME280;27283;52.504;13.358;2023-05-11T00:14:04;100981.28;;;13.80;98.23
41596;BME280;27283;52.504;13.358;2023-05-11T00:16:40;100988.06;;;13.76;99.08
41596;BME280;27283;52.504;13.358;2023-05-11T00:19:15;100988.44;;;13.73;99.03
41596;BME280;27283;52.504;13.358;2023-05-11T00:21:49;100987.28;;;13.68;98.67
41596;BME280;27283;52.504;13.358;2023-05-11T00:24:30;100986.16;;;13.62;98.47
41596;BME280;27283;52.504;13.358;2023-05-11T00:27:03;100982.78;;;13.60;98.74
41596;BME280;27283;52.504;13.358;2023-05-11T00:29:41;100987.91;;;13.55;98.81
41596;BME280;27283;52.504;13.358;2023-05-11T00:32:20;100979.28;;;13.51;98.48
41596;BME280;27283;52.504;13.358;2023-05-11T00:34:53;100984.22;;;13.47;98.57
41596;BME280;27283;52.504;13.358;2023-05-11T00:37:28;100977.66;;;13.42;98.34
41596;BME280;27283;52.504;13.358;2023-05-11T00:40:01;100974.84;;;13.35;99.76
41596;BME280;27283;52.504;13.358;2023-05-11T00:42:34;100979.56;;;13.33;100.00
41596;BME280;27283;52.504;13.358;2023-05-11T00:45:06;100982.47;;;13.32;100.00
41596;BME280;27283;52.504;13.358;2023-05-11T00:47:42;100976.91;;;13.25;100.00
41596;BME280;27283;52.504;13.358;2023-05-11T00:50:16;100974.38;;;13.23;100.00
41596;BME280;27283;52.504;13.358;2023-05-11T00:52:52;100981.84;;;13.21;100.00
41596;BME280;27283;52.504;13.358;2023-05-11T00:55:25;100982.38;;;13.17;100.00
41596;BME280;27283;52.504;13.358;2023-05-11T00:58:12;100982.03;;;13.11;100.00
41596;BME280;27283;52.504;13.358;2023-05-11T01:00:45;100974.47;;;13.07;100.00
41596;BME280;27283;52.504;13.358;2023-05-11T01:03:20;100982.94;;;13.04;100.00
41596;BME280;27283;52.504;13.358;2023-05-11T01:06:02;100983.47;;;12.99;100.00
41596;BME280;27283;52.504;13.358;2023-05-11T01:08:41;100980.47;;;12.94;100.00
41596;BME280;27283;52.504;13.358;2023-05-11T01:11:29;100981.81;;;12.90;100.00
41596;BME280;27283;52.504;13.358;2023-05-11T01:14:09;100982.00;;;12.88;100.00
41596;BME280;27283;52.504;13.358;2023-05-11T01:16:45;100985.22;;;12.84;100.00
41596;BME280;27283;52.504;13.358;2023-05-11T01:19:36;100985.56;;;12.81;100.00
41596;BME280;27283;52.504;13.358;2023-05-11T01:22:27;100985.06;;;12.77;100.00
41596;BME280;27283;52.504;13.358;2023-05-11T01:25:17;100990.97;;;12.72;100.00
41596;BME280;27283;52.504;13.358;2023-05-11T01:28:14;100988.81;;;12.68;100.00
41596;BME280;27283;52.504;13.358;2023-05-11T01:30:57;100992.38;;;12.68;100.00
41596;BME280;27283;52.504;13.358;2023-05-11T01:33:36;100993.53;;;12.66;100.00
41596;BME280;27283;52.504;13.358;2023-05-11T01:36:11;100988.31;;;12.64;100.00
41596;BME280;27283;52.504;13.358;2023-05-11T01:39:36;100988.00;;;12.59;100.00
41596;BME280;27283;52.504;13.358;2023-05-11T01:42:10;100988.34;;;12.56;100.00
41596;BME280;27283;52.504;13.358;2023-05-11T01:44:48;101001.34;;;12.52;100.00
41596;BME280;27283;52.504;13.358;2023-05-11T01:47:27;101003.69;;;12.55;100.00
41596;BME280;27283;52.504;13.358;2023-05-11T01:50:03;101011.13;;;12.53;100.00
41596;BME280;27283;52.504;13.358;2023-05-11T01:52:38;101005.16;;;12.74;100.00
41596;BME280;27283;52.504;13.358;2023-05-11T01:55:14;101009.78;;;12.97;100.00
41596;BME280;27283;52.504;13.358;2023-05-11T01:57:52;101013.91;;;13.16;100.00
41596;BME280;27283;52.504;13.358;2023-05-11T02:00:26;101011.47;;;13.29;100.00
41596;BME280;27283;52.504;13.358;2023-05-11T02:03:05;101016.34;;;13.42;100.00
41596;BME280;27283;52.504;13.358;2023-05-11T02:05:40;101024.28;;;13.44;99.58
41596;BME280;27283;52.504;13.358;2023-05-11T02:08:16;101016.28;;;13.51;99.24
41596;BME280;27283;52.504;13.358;2023-05-11T02:10:49;101020.97;;;13.57;98.45
41596;BME280;27283;52.504;13.358;2023-05-11T02:13:24;101026.06;;;13.52;99.08
41596;BME280;27283;52.504;13.358;2023-05-11T02:15:59;101022.69;;;13.50;99.05
41596;BME280;27283;52.504;13.358;2023-05-11T02:18:37;101023.94;;;13.39;99.08
41596;BME280;27283;52.504;13.358;2023-05-11T02:21:17;101021.41;;;13.37;99.57
41596;BME280;27283;52.504;13.358;2023-05-11T02:23:53;101026.69;;;13.30;99.87
41596;BME280;27283;52.504;13.358;2023-05-11T02:26:28;101023.78;;;13.32;99.99
41596;BME280;27283;52.504;13.358;2023-05-11T02:29:01;101022.94;;;13.40;99.94
41596;BME280;27283;52.504;13.358;2023-05-11T02:31:41;101023.06;;;13.46;99.24
41596;BME280;27283;52.504;13.358;2023-05-11T02:34:23;101031.88;;;13.40;98.70
41596;BME280;27283;52.504;13.358;2023-05-11T02:37:01;101034.56;;;13.40;98.58
41596;BME280;27283;52.504;13.358;2023-05-11T02:39:35;101029.13;;;13.49;97.64
41596;BME280;27283;52.504;13.358;2023-05-11T02:42:19;101039.00;;;13.33;98.17
41596;BME280;27283;52.504;13.358;2023-05-11T02:44:57;101035.44;;;13.41;95.63
41596;BME280;27283;52.504;13.358;2023-05-11T02:47:42;101037.09;;;13.42;94.40
41596;BME280;27283;52.504;13.358;2023-05-11T02:50:27;101032.91;;;13.39;93.18
41596;BME280;27283;52.504;13.358;2023-05-11T02:53:04;101037.16;;;13.34;92.14
41596;BME280;27283;52.504;13.358;2023-05-11T02:55:39;101039.13;;;13.40;91.42
41596;BME280;27283;52.504;13.358;2023-05-11T02:58:13;101045.06;;;13.35;90.22
41596;BME280;27283;52.504;13.358;2023-05-11T03:00:47;101045.75;;;13.29;88.67
41596;BME280;27283;52.504;13.358;2023-05-11T03:03:21;101044.06;;;13.28;87.22
41596;BME280;27283;52.504;13.358;2023-05-11T03:05:57;101044.75;;;13.30;86.64
41596;BME280;27283;52.504;13.358;2023-05-11T03:08:30;101039.50;;;13.28;86.31
41596;BME280;27283;52.504;13.358;2023-05-11T03:11:04;101045.75;;;13.29;85.56
41596;BME280;27283;52.504;13.358;2023-05-11T03:13:37;101042.72;;;13.24;85.32
41596;BME280;27283;52.504;13.358;2023-05-11T03:16:12;101039.66;;;13.27;85.41
41596;BME280;27283;52.504;13.358;2023-05-11T03:18:49;101041.72;;;13.25;85.22
41596;BME280;27283;52.504;13.358;2023-05-11T03:21:26;101038.38;;;13.15;86.24
41596;BME280;27283;52.504;13.358;2023-05-11T03:24:02;101037.44;;;13.07;85.95
41596;BME280;27283;52.504;13.358;2023-05-11T03:26:38;101041.25;;;13.13;85.28
41596;BME280;27283;52.504;13.358;2023-05-11T03:29:15;101039.09;;;13.08;85.24
41596;BME280;27283;52.504;13.358;2023-05-11T03:31:49;101036.75;;;13.05;85.56
41596;BME280;27283;52.504;13.358;2023-05-11T03:34:25;101035.38;;;13.09;85.20
41596;BME280;27283;52.504;13.358;2023-05-11T03:37:01;101036.38;;;13.08;85.26
41596;BME280;27283;52.504;13.358;2023-05-11T03:39:37;101043.84;;;13.06;85.46
41596;BME280;27283;52.504;13.358;2023-05-11T03:42:13;101047.34;;;13.07;85.23
41596;BME280;27283;52.504;13.358;2023-05-11T03:44:48;101042.66;;;13.09;84.76
41596;BME280;27283;52.504;13.358;2023-05-11T03:47:25;101039.78;;;13.10;84.03
41596;BME280;27283;52.504;13.358;2023-05-11T03:50:00;101039.09;;;13.08;83.85
41596;BME280;27283;52.504;13.358;2023-05-11T03:52:37;101044.47;;;13.08;83.64
41596;BME280;27283;52.504;13.358;2023-05-11T03:55:11;101045.53;;;13.07;82.90
41596;BME280;27283;52.504;13.358;2023-05-11T03:57:45;101039.31;;;12.90;83.59
41596;BME280;27283;52.504;13.358;2023-05-11T04:00:20;101047.75;;;12.96;82.22
41596;BME280;27283;52.504;13.358;2023-05-11T04:02:53;101039.63;;;13.04;81.67
41596;BME280;27283;52.504;13.358;2023-05-11T04:05:26;101036.97;;;12.96;81.31
41596;BME280;27283;52.504;13.358;2023-05-11T04:08:02;101041.47;;;13.03;81.14
41596;BME280;27283;52.504;13.358;2023-05-11T04:10:36;101041.66;;;13.02;80.51
41596;BME280;27283;52.504;13.358;2023-05-11T04:13:10;101043.66;;;13.00;79.99
41596;BME280;27283;52.504;13.358;2023-05-11T04:15:42;101043.16;;;13.04;79.65
41596;BME280;27283;52.504;13.358;2023-05-11T04:18:16;101045.84;;;13.04;79.39
41596;BME280;27283;52.504;13.358;2023-05-11T04:20:49;101039.94;;;13.09;79.40
41596;BME280;27283;52.504;13.358;2023-05-11T04:23:25;101043.44;;;13.18;78.99
41596;BME280;27283;52.504;13.358;2023-05-11T04:25:58;101040.25;;;13.14;78.56
41596;BME280;27283;52.504;13.358;2023-05-11T04:28:31;101055.91;;;13.19;78.18
41596;BME280;27283;52.504;13.358;2023-05-11T04:31:04;101052.50;;;13.25;77.49
41596;BME280;27283;52.504;13.358;2023-05-11T04:33:37;101057.09;;;13.24;76.98
41596;BME280;27283;52.504;13.358;2023-05-11T04:36:11;101059.91;;;13.31;76.41
41596;BME280;27283;52.504;13.358;2023-05-11T04:38:46;101053.84;;;13.29;76.39
41596;BME280;27283;52.504;13.358;2023-05-11T04:41:21;101057.22;;;13.39;75.36
41596;BME280;27283;52.504;13.358;2023-05-11T04:43:54;101067.56;;;13.19;76.40
41596;BME280;27283;52.504;13.358;2023-05-11T04:46:27;101069.91;;;13.22;75.79
41596;BME280;27283;52.504;13.358;2023-05-11T04:49:00;101065.66;;;13.28;75.43
41596;BME280;27283;52.504;13.358;2023-05-11T04:51:33;101074.28;;;13.32;74.72
41596;BME280;27283;52.504;13.358;2023-05-11T04:54:08;101069.84;;;13.39;74.81
41596;BME280;27283;52.504;13.358;2023-05-11T04:56:41;101079.31;;;13.43;74.41
41596;BME280;27283;52.504;13.358;2023-05-11T04:59:17;101077.75;;;13.49;74.06
41596;BME280;27283;52.504;13.358;2023-05-11T05:01:49;101082.28;;;13.56;73.29
41596;BME280;27283;52.504;13.358;2023-05-11T05:04:22;101079.22;;;13.59;72.72
41596;BME280;27283;52.504;13.358;2023-05-11T05:06:55;101076.28;;;13.69;73.12
41596;BME280;27283;52.504;13.358;2023-05-11T05:09:30;101085.19;;;13.78;71.96
41596;BME280;27283;52.504;13.358;2023-05-11T05:12:02;101077.22;;;13.85;71.63
41596;BME280;27283;52.504;13.358;2023-05-11T05:14:35;101089.56;;;14.02;71.61
41596;BME280;27283;52.504;13.358;2023-05-11T05:17:08;101084.13;;;14.10;70.83
41596;BME280;27283;52.504;13.358;2023-05-11T05:19:41;101077.31;;;14.14;69.57
41596;BME280;27283;52.504;13.358;2023-05-11T05:22:14;101085.00;;;14.26;69.30
41596;BME280;27283;52.504;13.358;2023-05-11T05:24:49;101083.34;;;14.40;68.57
41596;BME280;27283;52.504;13.358;2023-05-11T05:27:21;101089.16;;;14.51;68.34
41596;BME280;27283;52.504;13.358;2023-05-11T05:29:54;101084.75;;;14.74;67.55
41596;BME280;27283;52.504;13.358;2023-05-11T05:32:29;101077.56;;;15.26;65.14
41596;BME280;27283;52.504;13.358;2023-05-11T05:35:02;101080.34;;;16.05;61.77
41596;BME280;27283;52.504;13.358;2023-05-11T05:37:35;101083.00;;;17.05;59.05
41596;BME280;27283;52.504;13.358;2023-05-11T05:40:13;101082.84;;;17.75;55.92
41596;BME280;27283;52.504;13.358;2023-05-11T05:42:48;101081.72;;;18.38;54.33
41596;BME280;27283;52.504;13.358;2023-05-11T05:45:23;101089.41;;;19.01;51.80
41596;BME280;27283;52.504;13.358;2023-05-11T05:47:56;101098.09;;;19.37;50.77
41596;BME280;27283;52.504;13.358;2023-05-11T05:50:31;101090.34;;;19.86;49.44
41596;BME280;27283;52.504;13.358;2023-05-11T05:53:03;101097.47;;;20.18;48.14
41596;BME280;27283;52.504;13.358;2023-05-11T05:55:56;101099.66;;;20.60;45.47
41596;BME280;27283;52.504;13.358;2023-05-11T05:58:29;101101.69;;;20.71;46.45
41596;BME280;27283;52.504;13.358;2023-05-11T06:01:04;101098.34;;;20.12;48.12
41596;BME280;27283;52.504;13.358;2023-05-11T06:03:36;101112.97;;;21.19;44.59
41596;BME280;27283;52.504;13.358;2023-05-11T06:06:10;101114.25;;;21.35;43.92
41596;BME280;27283;52.504;13.358;2023-05-11T06:08:46;101107.78;;;21.48;42.97
41596;BME280;27283;52.504;13.358;2023-05-11T06:11:22;101114.25;;;21.16;44.02
41596;BME280;27283;52.504;13.358;2023-05-11T06:13:57;101098.22;;;21.01;44.75
41596;BME280;27283;52.504;13.358;2023-05-11T06:16:31;101102.97;;;21.80;42.64
41596;BME280;27283;52.504;13.358;2023-05-11T06:19:08;101099.72;;;21.71;42.10
41596;BME280;27283;52.504;13.358;2023-05-11T06:21:46;101107.25;;;22.18;40.75
41596;BME280;27283;52.504;13.358;2023-05-11T06:24:20;101109.88;;;22.25;40.64
41596;BME280;27283;52.504;13.358;2023-05-11T06:26:56;101110.19;;;22.47;40.59
41596;BME280;27283;52.504;13.358;2023-05-11T06:29:29;101107.31;;;22.00;42.20
41596;BME280;27283;52.504;13.358;2023-05-11T06:32:03;101108.09;;;22.30;41.43
41596;BME280;27283;52.504;13.358;2023-05-11T06:34:36;101103.88;;;23.17;38.08
41596;BME280;27283;52.504;13.358;2023-05-11T06:37:12;101106.22;;;23.26;37.54
41596;BME280;27283;52.504;13.358;2023-05-11T06:39:48;101108.28;;;23.18;38.28
41596;BME280;27283;52.504;13.358;2023-05-11T06:42:28;101115.72;;;23.47;37.23
41596;BME280;27283;52.504;13.358;2023-05-11T06:45:10;101104.25;;;23.50;38.21
41596;BME280;27283;52.504;13.358;2023-05-11T06:47:46;101116.31;;;23.78;38.44
41596;BME280;27283;52.504;13.358;2023-05-11T06:50:18;101102.75;;;24.00;36.50
41596;BME280;27283;52.504;13.358;2023-05-11T06:52:56;101112.63;;;23.84;37.09
41596;BME280;27283;52.504;13.358;2023-05-11T06:55:29;101101.28;;;24.26;36.48
41596;BME280;27283;52.504;13.358;2023-05-11T06:58:12;101107.06;;;24.41;34.93
41596;BME280;27283;52.504;13.358;2023-05-11T07:00:46;101104.81;;;24.72;34.55
41596;BME280;27283;52.504;13.358;2023-05-11T07:03:23;101110.41;;;24.77;33.95
41596;BME280;27283;52.504;13.358;2023-05-11T07:05:56;101106.69;;;24.21;34.86
41596;BME280;27283;52.504;13.358;2023-05-11T07:08:29;101101.34;;;24.99;33.53
41596;BME280;27283;52.504;13.358;2023-05-11T07:11:04;101101.88;;;24.45;35.13
41596;BME280;27283;52.504;13.358;2023-05-11T07:13:41;101105.25;;;25.03;33.12
41596;BME280;27283;52.504;13.358;2023-05-11T07:16:14;101106.75;;;24.94;33.12
41596;BME280;27283;52.504;13.358;2023-05-11T07:18:47;101099.16;;;25.01;34.19
41596;BME280;27283;52.504;13.358;2023-05-11T07:21:20;101098.34;;;25.67;32.72
41596;BME280;27283;52.504;13.358;2023-05-11T07:23:53;101104.38;;;25.42;33.14
41596;BME280;27283;52.504;13.358;2023-05-11T07:26:28;101109.31;;;25.40;32.79
41596;BME280;27283;52.504;13.358;2023-05-11T07:29:04;101103.19;;;25.55;32.09
41596;BME280;27283;52.504;13.358;2023-05-11T07:31:39;101107.97;;;25.42;32.68
41596;BME280;27283;52.504;13.358;2023-05-11T07:34:13;101104.75;;;25.73;32.41
41596;BME280;27283;52.504;13.358;2023-05-11T07:36:46;101101.38;;;25.65;31.91
41596;BME280;27283;52.504;13.358;2023-05-11T07:39:26;101098.19;;;25.52;33.18
41596;BME280;27283;52.504;13.358;2023-05-11T07:42:03;101105.06;;;26.04;32.67
41596;BME280;27283;52.504;13.358;2023-05-11T07:44:44;101109.28;;;26.11;31.41
41596;BME280;27283;52.504;13.358;2023-05-11T07:47:17;101107.88;;;26.74;31.52
41596;BME280;27283;52.504;13.358;2023-05-11T07:49:53;101100.75;;;26.45;30.77
41596;BME280;27283;52.504;13.358;2023-05-11T07:52:27;101109.25;;;26.71;30.38
41596;BME280;27283;52.504;13.358;2023-05-11T07:55:13;101103.22;;;26.79;30.24
41596;BME280;27283;52.504;13.358;2023-05-11T07:57:53;101101.13;;;26.97;30.54
41596;BME280;27283;52.504;13.358;2023-05-11T08:00:29;101100.97;;;26.71;30.73
41596;BME280;27283;52.504;13.358;2023-05-11T08:03:05;101101.44;;;27.05;29.47
41596;BME280;27283;52.504;13.358;2023-05-11T08:05:39;101108.44;;;27.29;29.06
41596;BME280;27283;52.504;13.358;2023-05-11T08:08:13;101098.84;;;26.88;29.93
41596;BME280;27283;52.504;13.358;2023-05-11T08:10:51;101104.09;;;26.52;31.62
41596;BME280;27283;52.504;13.358;2023-05-11T08:13:27;101107.75;;;27.59;28.49
41596;BME280;27283;52.504;13.358;2023-05-11T08:16:03;101105.88;;;27.80;28.08
41596;BME280;27283;52.504;13.358;2023-05-11T08:18:37;101094.00;;;27.80;28.15
41596;BME280;27283;52.504;13.358;2023-05-11T08:21:11;101106.03;;;27.43;28.64
41596;BME280;27283;52.504;13.358;2023-05-11T08:23:45;101099.13;;;27.40;28.76
41596;BME280;27283;52.504;13.358;2023-05-11T08:26:19;101093.78;;;27.23;29.26
41596;BME280;27283;52.504;13.358;2023-05-11T08:28:53;101091.41;;;27.47;29.00
41596;BME280;27283;52.504;13.358;2023-05-11T08:34:41;101110.31;;;27.81;27.94
41596;BME280;27283;52.504;13.358;2023-05-11T08:37:14;101095.88;;;27.69;28.38
41596;BME280;27283;52.504;13.358;2023-05-11T08:39:46;101096.97;;;27.63;28.41
41596;BME280;27283;52.504;13.358;2023-05-11T08:42:23;101089.38;;;28.01;27.31
41596;BME280;27283;52.504;13.358;2023-05-11T08:44:57;101104.28;;;28.00;27.53
41596;BME280;27283;52.504;13.358;2023-05-11T08:47:34;101103.88;;;27.50;27.93
41596;BME280;27283;52.504;13.358;2023-05-11T08:50:11;101100.84;;;27.51;27.60
41596;BME280;27283;52.504;13.358;2023-05-11T08:55:38;101092.81;;;26.92;28.92
41596;BME280;27283;52.504;13.358;2023-05-11T08:58:14;101086.31;;;27.13;28.37
41596;BME280;27283;52.504;13.358;2023-05-11T09:00:52;101090.34;;;27.48;28.71
41596;BME280;27283;52.504;13.358;2023-05-11T09:03:39;101091.22;;;27.90;27.58
41596;BME280;27283;52.504;13.358;2023-05-11T09:06:16;101088.47;;;27.85;26.51
41596;BME280;27283;52.504;13.358;2023-05-11T09:08:50;101089.25;;;27.49;27.77
41596;BME280;27283;52.504;13.358;2023-05-11T09:11:23;101082.03;;;27.48;27.60
41596;BME280;27283;52.504;13.358;2023-05-11T09:13:57;101094.91;;;27.27;27.50
41596;BME280;27283;52.504;13.358;2023-05-11T09:16:30;101076.72;;;27.31;27.37
41596;BME280;27283;52.504;13.358;2023-05-11T09:19:13;101078.50;;;27.68;28.38
41596;BME280;27283;52.504;13.358;2023-05-11T09:21:51;101078.63;;;27.26;27.45
41596;BME280;27283;52.504;13.358;2023-05-11T09:24:25;101078.03;;;27.13;27.92
41596;BME280;27283;52.504;13.358;2023-05-11T09:27:13;101082.44;;;27.14;28.04
41596;BME280;27283;52.504;13.358;2023-05-11T09:29:51;101078.72;;;26.83;28.35
41596;BME280;27283;52.504;13.358;2023-05-11T09:32:24;101084.41;;;26.71;27.50
41596;BME280;27283;52.504;13.358;2023-05-11T09:34:59;101082.63;;;27.02;28.00
41596;BME280;27283;52.504;13.358;2023-05-11T09:38:00;101076.72;;;26.78;27.54
41596;BME280;27283;52.504;13.358;2023-05-11T09:40:35;101077.72;;;26.62;28.54
41596;BME280;27283;52.504;13.358;2023-05-11T09:43:15;101085.31;;;26.44;28.69
41596;BME280;27283;52.504;13.358;2023-05-11T09:53:16;101088.97;;;27.56;26.96
41596;BME280;27283;52.504;13.358;2023-05-11T09:55:51;101086.53;;;27.75;25.92
41596;BME280;27283;52.504;13.358;2023-05-11T09:58:24;101080.09;;;27.44;26.39
41596;BME280;27283;52.504;13.358;2023-05-11T10:01:02;101077.84;;;27.35;27.08
41596;BME280;27283;52.504;13.358;2023-05-11T10:03:44;101072.66;;;27.49;26.22
41596;BME280;27283;52.504;13.358;2023-05-11T10:06:19;101084.28;;;27.62;26.61
41596;BME280;27283;52.504;13.358;2023-05-11T10:09:07;101077.03;;;27.40;25.96
41596;BME280;27283;52.504;13.358;2023-05-11T10:11:43;101071.31;;;26.99;26.22
41596;BME280;27283;52.504;13.358;2023-05-11T10:14:18;101070.06;;;27.27;26.37
41596;BME280;27283;52.504;13.358;2023-05-11T10:16:51;101070.69;;;26.81;27.26
41596;BME280;27283;52.504;13.358;2023-05-11T10:19:25;101072.53;;;27.23;26.37
41596;BME280;27283;52.504;13.358;2023-05-11T10:21:58;101086.59;;;26.69;26.54
41596;BME280;27283;52.504;13.358;2023-05-11T10:24:35;101068.41;;;26.35;27.34
41596;BME280;27283;52.504;13.358;2023-05-11T10:27:10;101070.16;;;26.84;27.19
41596;BME280;27283;52.504;13.358;2023-05-11T10:29:45;101058.41;;;27.10;26.45
41596;BME280;27283;52.504;13.358;2023-05-11T10:32:19;101060.00;;;27.94;24.69
41596;BME280;27283;52.504;13.358;2023-05-11T10:34:55;101057.59;;;28.19;24.78
41596;BME280;27283;52.504;13.358;2023-05-11T10:37:38;101067.22;;;28.68;23.87
41596;BME280;27283;52.504;13.358;2023-05-11T10:40:18;101055.75;;;29.00;23.58
41596;BME280;27283;52.504;13.358;2023-05-11T10:43:14;101065.56;;;28.41;23.58
41596;BME280;27283;52.504;13.358;2023-05-11T10:45:58;101052.28;;;27.91;24.60
41596;BME280;27283;52.504;13.358;2023-05-11T10:49:00;101064.66;;;27.53;24.64
41596;BME280;27283;52.504;13.358;2023-05-11T10:51:55;101059.78;;;26.22;26.73
41596;BME280;27283;52.504;13.358;2023-05-11T10:54:40;101064.19;;;25.19;27.51
41596;BME280;27283;52.504;13.358;2023-05-11T10:57:35;101052.66;;;24.61;29.41
41596;BME280;27283;52.504;13.358;2023-05-11T11:03:29;101047.56;;;24.18;30.64
41596;BME280;27283;52.504;13.358;2023-05-11T11:06:04;101066.97;;;24.29;30.67
41596;BME280;27283;52.504;13.358;2023-05-11T11:08:54;101050.00;;;24.88;29.47
41596;BME280;27283;52.504;13.358;2023-05-11T11:11:46;101053.13;;;25.63;27.99
41596;BME280;27283;52.504;13.358;2023-05-11T11:18:40;101064.03;;;26.07;27.48
41596;BME280;27283;52.504;13.358;2023-05-11T11:22:41;101043.13;;;26.92;26.91
41596;BME280;27283;52.504;13.358;2023-05-11T11:25:50;101050.56;;;27.49;25.67
41596;BME280;27283;52.504;13.358;2023-05-11T11:32:27;101045.91;;;27.65;26.00
41596;BME280;27283;52.504;13.358;2023-05-11T11:38:19;101043.72;;;26.13;27.16
41596;BME280;27283;52.504;13.358;2023-05-11T11:40:57;101052.16;;;24.64;29.01
41596;BME280;27283;52.504;13.358;2023-05-11T11:43:43;101052.19;;;24.13;30.33
41596;BME280;27283;52.504;13.358;2023-05-11T11:46:26;101060.63;;;23.94;30.63
41596;BME280;27283;52.504;13.358;2023-05-11T11:49:06;101050.31;;;24.01;29.95
41596;BME280;27283;52.504;13.358;2023-05-11T11:51:43;101052.44;;;24.11;29.73
41596;BME280;27283;52.504;13.358;2023-05-11T11:54:35;101050.56;;;24.00;29.41
41596;BME280;27283;52.504;13.358;2023-05-11T11:57:41;101052.59;;;23.76;29.04
41596;BME280;27283;52.504;13.358;2023-05-11T12:00:20;101044.91;;;23.61;29.35
41596;BME280;27283;52.504;13.358;2023-05-11T12:02:52;101060.66;;;23.25;29.43
41596;BME280;27283;52.504;13.358;2023-05-11T12:05:59;101067.50;;;22.98;29.96
41596;BME280;27283;52.504;13.358;2023-05-11T12:08:37;101061.94;;;22.70;29.90
41596;BME280;27283;52.504;13.358;2023-05-11T12:11:10;101066.22;;;22.65;29.66
41596;BME280;27283;52.504;13.358;2023-05-11T12:13:47;101068.72;;;22.55;29.68
41596;BME280;27283;52.504;13.358;2023-05-11T12:16:20;101072.66;;;22.47;29.39
41596;BME280;27283;52.504;13.358;2023-05-11T12:18:54;101070.38;;;22.44;29.84
41596;BME280;27283;52.504;13.358;2023-05-11T12:21:30;101072.16;;;22.51;29.80
41596;BME280;27283;52.504;13.358;2023-05-11T12:24:17;101068.72;;;22.67;29.74
41596;BME280;27283;52.504;13.358;2023-05-11T12:26:54;101059.19;;;22.93;29.95
41596;BME280;27283;52.504;13.358;2023-05-11T12:29:29;101074.53;;;23.18;29.64
41596;BME280;27283;52.504;13.358;2023-05-11T12:32:04;101067.41;;;23.46;29.08
41596;BME280;27283;52.504;13.358;2023-05-11T12:34:37;101073.72;;;23.75;28.69
41596;BME280;27283;52.504;13.358;2023-05-11T12:37:12;101076.81;;;23.79;28.04
41596;BME280;27283;52.504;13.358;2023-05-11T12:39:53;101065.78;;;23.62;28.39
41596;BME280;27283;52.504;13.358;2023-05-11T12:42:27;101062.47;;;23.60;28.08
41596;BME280;27283;52.504;13.358;2023-05-11T12:45:07;101075.50;;;23.52;28.41
41596;BME280;27283;52.504;13.358;2023-05-11T12:47:41;101059.44;;;23.32;28.62
41596;BME280;27283;52.504;13.358;2023-05-11T12:50:19;101071.84;;;23.35;28.38
41596;BME280;27283;52.504;13.358;2023-05-11T12:53:15;101059.84;;;23.53;28.27
41596;BME280;27283;52.504;13.358;2023-05-11T12:59:30;101080.25;;;23.05;29.69
41596;BME280;27283;52.504;13.358;2023-05-11T13:02:11;101075.97;;;22.85;29.60
41596;BME280;27283;52.504;13.358;2023-05-11T13:05:13;101079.78;;;22.96;29.53
41596;BME280;27283;52.504;13.358;2023-05-11T13:08:22;101067.03;;;23.01;29.82
41596;BME280;27283;52.504;13.358;2023-05-11T13:11:16;101067.59;;;23.04;29.29
41596;BME280;27283;52.504;13.358;2023-05-11T13:13:58;101060.00;;;22.94;29.50
41596;BME280;27283;52.504;13.358;2023-05-11T13:17:32;101060.25;;;22.80;29.54
41596;BME280;27283;52.504;13.358;2023-05-11T13:20:15;101080.28;;;22.69;29.07
41596;BME280;27283;52.504;13.358;2023-05-11T13:23:08;101060.50;;;22.55;28.84
41596;BME280;27283;52.504;13.358;2023-05-11T13:25:54;101060.63;;;22.60;28.71
41596;BME280;27283;52.504;13.358;2023-05-11T13:28:44;101069.91;;;22.59;28.88
41596;BME280;27283;52.504;13.358;2023-05-11T13:31:44;101061.59;;;22.54;28.76
41596;BME280;27283;52.504;13.358;2023-05-11T13:34:20;101053.13;;;22.56;28.79
41596;BME280;27283;52.504;13.358;2023-05-11T13:36:52;101064.44;;;22.59;29.08
41596;BME280;27283;52.504;13.358;2023-05-11T13:39:25;101045.16;;;22.54;29.16
41596;BME280;27283;52.504;13.358;2023-05-11T13:41:58;101055.72;;;22.62;28.91
41596;BME280;27283;52.504;13.358;2023-05-11T13:44:30;101069.66;;;22.49;28.88
41596;BME280;27283;52.504;13.358;2023-05-11T13:47:03;101059.19;;;22.46;28.65
41596;BME280;27283;52.504;13.358;2023-05-11T13:49:39;101059.66;;;22.43;28.54
41596;BME280;27283;52.504;13.358;2023-05-11T13:52:14;101057.28;;;22.58;28.11
41596;BME280;27283;52.504;13.358;2023-05-11T13:54:46;101054.44;;;22.53;28.78
41596;BME280;27283;52.504;13.358;2023-05-11T13:57:19;101060.16;;;22.63;28.47
41596;BME280;27283;52.504;13.358;2023-05-11T13:59:52;101055.00;;;22.55;28.98
41596;BME280;27283;52.504;13.358;2023-05-11T14:02:24;101052.03;;;22.69;28.95
41596;BME280;27283;52.504;13.358;2023-05-11T14:05:00;101060.25;;;22.80;28.37
41596;BME280;27283;52.504;13.358;2023-05-11T14:07:32;101059.28;;;22.87;28.66